createdAt,value
2024-04-10T00:00:48.320Z,67.78
2024-04-10T00:03:52.454Z,67.67
2024-04-10T00:06:35.236Z,67.48
2024-04-10T00:09:18.221Z,67.80
2024-04-10T00:12:01.478Z,67.37
2024-04-10T00:14:44.174Z,67.41
2024-04-10T00:17:28.425Z,67.90
2024-04-10T00:20:12.219Z,67.45
2024-04-10T00:22:55.318Z,67.65
2024-04-10T00:25:38.250Z,67.91
2024-04-10T00:28:22.144Z,68.15
2024-04-10T00:31:06.230Z,67.30
2024-04-10T00:33:50.613Z,67.71
2024-04-10T00:36:35.173Z,67.78
2024-04-10T00:39:18.232Z,68.00
2024-04-10T00:42:02.193Z,67.28
2024-04-10T00:44:45.184Z,67.45
2024-04-10T00:47:28.559Z,67.56
2024-04-10T00:50:13.254Z,67.45
2024-04-10T00:52:56.233Z,66.95
2024-04-10T00:55:40.267Z,66.71
2024-04-10T00:58:24.316Z,66.54
2024-04-10T01:01:08.211Z,66.74
2024-04-10T01:03:53.318Z,66.71
2024-04-10T01:06:38.290Z,67.64
2024-04-10T01:09:24.224Z,67.67
2024-04-10T01:12:08.340Z,68.63
2024-04-10T01:14:52.444Z,68.43
2024-04-10T01:17:35.286Z,68.42
2024-04-10T01:20:21.311Z,69.16
2024-04-10T01:23:07.541Z,68.79
2024-04-10T01:25:50.388Z,69.58
2024-04-10T01:28:35.179Z,69.99
2024-04-10T01:31:19.307Z,70.02
2024-04-10T01:34:03.365Z,69.88
2024-04-10T01:36:47.196Z,69.64
2024-04-10T01:39:30.220Z,70.20
2024-04-10T01:42:14.234Z,70.80
2024-04-10T01:44:58.334Z,70.60
2024-04-10T01:47:42.350Z,71.47
2024-04-10T01:50:27.642Z,71.59
2024-04-10T01:53:10.226Z,71.62
2024-04-10T01:55:54.207Z,71.32
2024-04-10T01:58:38.184Z,71.63
2024-04-10T02:01:22.238Z,71.73
2024-04-10T02:04:05.194Z,71.87
2024-04-10T02:06:48.238Z,72.28
2024-04-10T02:09:32.208Z,72.58
2024-04-10T02:12:15.305Z,72.39
2024-04-10T02:14:59.197Z,72.59
2024-04-10T02:17:43.433Z,72.96
2024-04-10T02:20:30.250Z,72.77
2024-04-10T02:23:14.263Z,73.30
2024-04-10T02:25:58.278Z,73.64
2024-04-10T02:28:41.301Z,74.05
2024-04-10T02:31:25.181Z,73.86
2024-04-10T02:34:09.332Z,73.94
2024-04-10T02:36:53.228Z,73.72
2024-04-10T02:39:36.288Z,73.71
2024-04-10T02:42:19.370Z,73.54
2024-04-10T02:45:03.184Z,73.32
2024-04-10T02:47:46.253Z,73.33
2024-04-10T02:50:29.482Z,73.26
2024-04-10T02:53:12.315Z,73.37
2024-04-10T02:55:58.226Z,73.35
2024-04-10T02:58:42.243Z,73.50
2024-04-10T03:01:28.366Z,73.67
2024-04-10T03:04:12.532Z,73.82
2024-04-10T03:06:55.252Z,73.92
2024-04-10T03:09:38.214Z,74.05
2024-04-10T03:12:22.447Z,73.93
2024-04-10T03:15:06.244Z,73.91
2024-04-10T03:17:50.307Z,73.94
2024-04-10T03:20:33.402Z,74.06
2024-04-10T03:23:17.250Z,74.16
2024-04-10T03:26:00.346Z,74.17
2024-04-10T03:28:44.216Z,74.35
2024-04-10T03:31:29.271Z,74.44
2024-04-10T03:34:12.372Z,74.47
2024-04-10T03:36:56.221Z,74.70
2024-04-10T03:39:40.345Z,74.74
2024-04-10T03:42:24.246Z,74.79
2024-04-10T03:45:08.389Z,74.74
2024-04-10T03:47:52.484Z,74.93
2024-04-10T03:50:35.349Z,75.19
2024-04-10T03:53:19.386Z,75.35
2024-04-10T03:56:03.374Z,75.46
2024-04-10T03:58:48.373Z,75.53
2024-04-10T04:01:32.224Z,75.60
2024-04-10T04:04:15.234Z,75.78
2024-04-10T04:06:59.713Z,75.95
2024-04-10T04:09:42.347Z,76.13
2024-04-10T04:12:26.351Z,76.17
2024-04-10T04:15:11.231Z,76.41
2024-04-10T04:17:54.369Z,76.49
2024-04-10T04:20:38.527Z,76.53
2024-04-10T04:23:21.311Z,76.73
2024-04-10T04:29:08.255Z,77.18
2024-04-10T04:31:51.469Z,77.47
2024-04-10T04:34:35.245Z,77.39
2024-04-10T04:37:19.230Z,77.60
2024-04-10T04:40:03.234Z,77.70
2024-04-10T04:42:46.333Z,78.18
2024-04-10T04:45:31.245Z,78.44
2024-04-10T04:48:15.407Z,78.47
2024-04-10T04:51:00.269Z,78.53
2024-04-10T04:53:43.671Z,78.72
2024-04-10T04:56:27.321Z,78.93
2024-04-10T04:59:11.263Z,78.96
2024-04-10T05:01:57.303Z,79.20
2024-04-10T05:04:57.254Z,79.25
2024-04-10T05:07:42.526Z,79.19
2024-04-10T05:10:26.214Z,79.52
2024-04-10T05:13:11.387Z,79.70
2024-04-10T05:15:55.309Z,79.85
2024-04-10T05:18:39.330Z,79.93
2024-04-10T05:21:23.232Z,79.98
2024-04-10T05:24:06.251Z,80.05
2024-04-10T05:26:50.272Z,80.16
2024-04-10T05:29:34.501Z,80.24
2024-04-10T05:32:18.387Z,80.35
2024-04-10T05:35:01.389Z,80.25
2024-04-10T05:37:45.269Z,80.34
2024-04-10T05:40:30.300Z,80.54
2024-04-10T05:43:14.262Z,80.71
2024-04-10T05:45:57.241Z,80.98
2024-04-10T05:48:41.771Z,81.11
2024-04-10T05:51:25.280Z,81.36
2024-04-10T05:54:09.415Z,81.42
2024-04-10T05:56:54.244Z,81.65
2024-04-10T05:59:37.249Z,81.77
2024-04-10T06:02:21.305Z,81.95
2024-04-10T06:05:08.879Z,81.96
2024-04-10T06:07:54.283Z,82.10
2024-04-10T06:10:37.247Z,82.36
2024-04-10T06:13:21.247Z,82.50
2024-04-10T06:16:14.283Z,82.90
2024-04-10T06:18:59.314Z,82.82
2024-04-10T06:21:42.266Z,82.89
2024-04-10T06:24:27.207Z,83.08
2024-04-10T06:27:11.275Z,83.25
2024-04-10T06:29:55.375Z,83.32
2024-04-10T06:32:39.526Z,83.35
2024-04-10T06:35:23.474Z,83.55
2024-04-10T06:38:07.292Z,83.64
2024-04-10T06:40:51.334Z,83.50
2024-04-10T06:43:34.316Z,83.63
2024-04-10T06:46:18.269Z,83.94
2024-04-10T06:49:02.620Z,84.02
2024-04-10T06:51:45.240Z,84.08
2024-04-10T06:54:29.246Z,84.26
2024-04-10T06:57:12.267Z,84.26
2024-04-10T06:59:56.292Z,84.23
2024-04-10T07:02:40.551Z,84.22
2024-04-10T07:05:24.349Z,84.30
2024-04-10T07:08:08.507Z,84.53
2024-04-10T07:10:52.980Z,84.49
2024-04-10T07:13:36.362Z,84.66
2024-04-10T07:16:21.411Z,84.87
2024-04-10T07:19:06.364Z,84.96
2024-04-10T07:21:50.349Z,85.04
2024-04-10T07:24:34.348Z,85.03
2024-04-10T07:27:18.370Z,85.19
2024-04-10T07:30:05.418Z,85.34
2024-04-10T07:32:49.495Z,85.58
2024-04-10T07:35:33.398Z,85.65
2024-04-10T07:38:18.442Z,85.64
2024-04-10T07:41:11.396Z,85.55
2024-04-10T07:43:55.463Z,85.69
2024-04-10T07:46:39.379Z,85.79
2024-04-10T07:49:24.458Z,86.02
2024-04-10T07:52:08.488Z,86.27
2024-04-10T07:54:52.363Z,86.36
2024-04-10T07:57:36.360Z,86.57
2024-04-10T08:00:20.335Z,86.57
2024-04-10T08:03:04.384Z,86.73
2024-04-10T08:05:48.521Z,86.82
2024-04-10T08:08:33.580Z,87.07
2024-04-10T08:11:17.538Z,87.19
2024-04-10T08:14:01.458Z,87.11
2024-04-10T08:16:45.529Z,87.17
2024-04-10T08:19:29.370Z,87.29
2024-04-10T08:22:16.350Z,87.42
2024-04-10T08:25:00.390Z,87.54
2024-04-10T08:27:44.302Z,87.58
2024-04-10T08:30:28.343Z,87.75
2024-04-10T08:33:12.495Z,87.82
2024-04-10T08:35:56.367Z,88.02
2024-04-10T08:38:40.509Z,88.10
2024-04-10T08:41:27.328Z,88.14
2024-04-10T08:44:11.385Z,88.03
2024-04-10T08:46:56.496Z,88.06
2024-04-10T08:49:41.340Z,87.83
2024-04-10T08:52:25.373Z,87.75
2024-04-10T08:55:09.608Z,87.79
2024-04-10T08:57:53.523Z,87.65
2024-04-10T09:00:37.443Z,87.62
2024-04-10T09:03:22.595Z,87.54
2024-04-10T09:06:06.337Z,87.94
2024-04-10T09:08:50.369Z,87.92
2024-04-10T09:11:40.995Z,87.86
2024-04-10T09:14:26.379Z,88.00
2024-04-10T09:17:10.685Z,87.96
2024-04-10T09:19:53.498Z,87.78
2024-04-10T09:22:36.346Z,87.76
2024-04-10T09:25:28.471Z,87.78
2024-04-10T09:28:16.402Z,87.64
2024-04-10T09:31:00.401Z,87.68
2024-04-10T09:33:49.600Z,87.67
2024-04-10T09:36:34.375Z,87.87
2024-04-10T09:39:19.348Z,87.94
2024-04-10T09:42:10.479Z,87.77
2024-04-10T09:44:54.480Z,87.52
2024-04-10T09:47:40.414Z,87.35
2024-04-10T09:50:25.292Z,87.39
2024-04-10T09:53:09.264Z,87.46
2024-04-10T09:55:53.304Z,87.54
2024-04-10T09:58:37.548Z,87.50
2024-04-10T10:01:21.326Z,87.68
2024-04-10T10:04:12.423Z,87.94
2024-04-10T10:06:56.275Z,87.95
2024-04-10T10:09:42.314Z,87.89
2024-04-10T10:12:26.404Z,87.97
2024-04-10T10:15:10.423Z,88.02
2024-04-10T10:18:00.992Z,88.23
2024-04-10T10:20:46.433Z,88.30
2024-04-10T10:23:36.363Z,88.11
2024-04-10T10:26:20.323Z,88.29
2024-04-10T10:29:05.244Z,88.33
2024-04-10T10:31:50.275Z,88.33
2024-04-10T10:34:40.451Z,88.23
2024-04-10T10:37:24.264Z,88.21
2024-04-10T10:40:07.305Z,88.29
2024-04-10T10:42:51.264Z,88.38
2024-04-10T10:45:35.366Z,88.50
2024-04-10T10:48:19.578Z,88.48
2024-04-10T10:51:10.351Z,88.59
2024-04-10T10:53:53.443Z,88.42
2024-04-10T10:56:43.402Z,88.59
2024-04-10T10:59:27.277Z,88.75
2024-04-10T11:02:11.393Z,88.82
2024-04-10T11:04:54.422Z,88.92
2024-04-10T11:07:37.409Z,88.93
2024-04-10T11:10:25.253Z,89.10
2024-04-10T11:13:16.269Z,89.22
2024-04-10T11:16:06.445Z,89.23
2024-04-10T11:18:49.351Z,89.41
2024-04-10T11:21:32.600Z,89.38
2024-04-10T11:24:15.290Z,89.48
2024-04-10T11:26:59.461Z,89.47
2024-04-10T11:29:42.371Z,89.54
2024-04-10T11:32:26.347Z,89.68
2024-04-10T11:35:09.406Z,89.85
2024-04-10T11:37:53.390Z,89.79
2024-04-10T11:40:36.283Z,89.88
2024-04-10T11:43:20.285Z,89.92
2024-04-10T11:46:04.331Z,90.07
2024-04-10T11:48:47.412Z,90.34
2024-04-10T11:51:31.332Z,90.56
2024-04-10T11:54:15.267Z,90.69
2024-04-10T11:56:59.404Z,90.71
2024-04-10T11:59:43.377Z,90.65
2024-04-10T12:02:28.521Z,90.64
2024-04-10T12:05:11.521Z,90.70
2024-04-10T12:07:55.405Z,90.54
2024-04-10T12:10:40.438Z,90.64
2024-04-10T12:13:24.293Z,90.71
2024-04-10T12:16:07.407Z,90.77
2024-04-10T12:18:51.386Z,90.53
2024-04-10T12:21:35.442Z,90.54
2024-04-10T12:24:18.250Z,90.54
2024-04-10T12:27:01.347Z,90.58
2024-04-10T12:29:44.431Z,90.66
2024-04-10T12:32:28.496Z,90.77
2024-04-10T12:35:25.363Z,90.97
2024-04-10T12:38:16.332Z,91.07
2024-04-10T12:40:59.329Z,91.07
2024-04-10T12:43:43.356Z,90.92
2024-04-10T12:46:30.374Z,91.09
2024-04-10T12:49:14.469Z,91.19
2024-04-10T12:51:57.302Z,91.16
2024-04-10T12:54:41.453Z,90.97
2024-04-10T12:57:26.401Z,91.18
2024-04-10T13:00:10.317Z,91.36
2024-04-10T13:02:54.552Z,91.57
2024-04-10T13:05:38.318Z,91.47
2024-04-10T13:08:22.276Z,91.31
2024-04-10T13:11:06.377Z,91.28
2024-04-10T13:13:49.293Z,91.32
2024-04-10T13:16:33.336Z,91.25
2024-04-10T13:19:16.281Z,91.36
2024-04-10T13:22:00.278Z,91.51
2024-04-10T13:24:44.313Z,91.66
2024-04-10T13:27:27.300Z,91.78
2024-04-10T13:30:15.418Z,91.77
2024-04-10T13:32:58.589Z,91.96
2024-04-10T13:35:43.329Z,92.15
2024-04-10T13:38:29.988Z,92.27
2024-04-10T13:41:17.320Z,92.26
2024-04-10T13:44:01.416Z,92.45
2024-04-10T13:46:46.376Z,92.56
2024-04-10T13:49:30.306Z,92.41
2024-04-10T13:52:13.295Z,92.61
2024-04-10T13:54:57.288Z,92.67
2024-04-10T13:57:40.365Z,92.83
2024-04-10T14:00:24.336Z,92.97
2024-04-10T14:03:09.590Z,92.90
2024-04-10T14:05:52.331Z,93.04
2024-04-10T14:08:36.483Z,93.21
2024-04-10T14:11:20.503Z,93.13
2024-04-10T14:14:03.303Z,93.21
2024-04-10T14:16:48.557Z,93.52
2024-04-10T14:19:31.337Z,93.76
2024-04-10T14:22:15.350Z,93.93
2024-04-10T14:24:58.346Z,94.04
2024-04-10T14:27:41.385Z,94.27
2024-04-10T14:30:25.322Z,94.85
2024-04-10T14:33:09.403Z,95.27
2024-04-10T14:35:52.392Z,95.53
2024-04-10T14:38:35.460Z,95.71
2024-04-10T14:41:19.365Z,96.08
2024-04-10T14:44:03.442Z,96.38
2024-04-10T14:46:47.495Z,96.41
2024-04-10T14:49:30.347Z,96.43
2024-04-10T14:52:14.315Z,96.64
2024-04-10T14:54:58.355Z,96.51
2024-04-10T14:57:42.348Z,96.47
2024-04-10T15:00:26.319Z,96.48
2024-04-10T15:03:09.374Z,96.52
2024-04-10T15:05:52.461Z,96.46
2024-04-10T15:08:36.345Z,96.42
2024-04-10T15:11:19.464Z,96.40
2024-04-10T15:14:03.367Z,96.28
2024-04-10T15:16:46.398Z,96.55
2024-04-10T15:19:30.447Z,96.53
2024-04-10T15:22:14.385Z,96.81
2024-04-10T15:24:58.305Z,97.04
2024-04-10T15:27:42.343Z,97.24
2024-04-10T15:30:26.345Z,97.40
2024-04-10T15:33:09.511Z,97.71
2024-04-10T15:35:54.393Z,97.82
2024-04-10T15:38:38.380Z,97.70
2024-04-10T15:41:22.417Z,97.64
2024-04-10T15:44:07.473Z,98.04
2024-04-10T15:46:51.315Z,98.24
2024-04-10T15:49:36.571Z,98.30
2024-04-10T15:52:38.009Z,98.67
2024-04-10T15:55:24.352Z,98.74
2024-04-10T15:58:08.284Z,98.78
2024-04-10T16:00:53.400Z,99.13
2024-04-10T16:03:38.068Z,98.99
2024-04-10T16:06:25.665Z,98.87
2024-04-10T16:09:09.425Z,98.58
2024-04-10T16:11:52.370Z,98.26
2024-04-10T16:14:36.314Z,97.99
2024-04-10T16:17:19.475Z,97.64
2024-04-10T16:20:05.328Z,96.89
2024-04-10T16:22:48.314Z,96.17
2024-04-10T16:25:32.290Z,94.97
2024-04-10T16:28:15.344Z,95.01
2024-04-10T16:30:59.360Z,94.44
2024-04-10T16:33:42.579Z,94.04
2024-04-10T16:36:26.427Z,94.06
2024-04-10T16:39:10.409Z,93.41
2024-04-10T16:41:53.333Z,93.18
2024-04-10T16:44:36.423Z,92.91
2024-04-10T16:47:20.479Z,92.81
2024-04-10T16:50:04.330Z,92.97
2024-04-10T16:52:47.303Z,92.16
2024-04-10T16:55:31.338Z,92.08
2024-04-10T16:58:15.382Z,90.97
2024-04-10T17:01:00.361Z,90.30
2024-04-10T17:03:44.574Z,90.11
2024-04-10T17:06:28.430Z,89.42
2024-04-10T17:09:13.382Z,89.10
2024-04-10T17:11:56.439Z,88.68
2024-04-10T17:14:39.368Z,88.30
2024-04-10T17:17:23.384Z,87.86
2024-04-10T17:20:23.386Z,87.80
2024-04-10T17:23:07.316Z,87.88
2024-04-10T17:25:50.326Z,87.62
2024-04-10T17:28:33.322Z,86.87
2024-04-10T17:31:18.346Z,86.91
2024-04-10T17:34:01.729Z,86.37
2024-04-10T17:36:46.311Z,86.46
2024-04-10T17:39:30.348Z,85.66
2024-04-10T17:42:16.360Z,85.01
2024-04-10T17:45:00.639Z,85.53
2024-04-10T17:47:44.425Z,84.30
2024-04-10T17:50:28.742Z,83.58
2024-04-10T17:53:13.971Z,84.65
2024-04-10T17:55:56.340Z,84.45
2024-04-10T17:58:39.323Z,84.05
2024-04-10T18:01:23.427Z,82.99
2024-04-10T18:04:10.468Z,82.83
2024-04-10T18:06:54.459Z,82.45
2024-04-10T18:09:38.348Z,82.72
2024-04-10T18:15:27.548Z,81.44
2024-04-10T18:18:11.504Z,77.60
2024-04-10T18:20:54.555Z,75.89
2024-04-10T18:23:37.488Z,77.16
2024-04-10T18:26:21.560Z,76.75
2024-04-10T18:29:04.347Z,76.32
2024-04-10T18:31:48.527Z,75.92
2024-04-10T18:34:31.552Z,75.77
2024-04-10T18:37:15.448Z,76.58
2024-04-10T18:39:58.344Z,76.92
2024-04-10T18:42:42.384Z,76.22
2024-04-10T18:45:26.603Z,75.60
2024-04-10T18:48:10.634Z,76.17
2024-04-10T18:50:55.550Z,76.45
2024-04-10T18:53:39.503Z,77.24
2024-04-10T18:56:23.431Z,77.00
2024-04-10T18:59:07.394Z,77.57
2024-04-10T19:01:51.429Z,77.48
2024-04-10T19:04:35.633Z,77.47
2024-04-10T19:07:18.320Z,77.08
2024-04-10T19:10:01.362Z,76.93
2024-04-10T19:15:29.355Z,76.66
2024-04-10T19:18:13.614Z,75.55
2024-04-10T19:20:57.514Z,75.26
2024-04-10T19:23:43.415Z,75.22
2024-04-10T19:26:27.355Z,75.58
2024-04-10T19:29:11.364Z,75.47
2024-04-10T19:31:55.357Z,75.69
2024-04-10T19:34:39.527Z,75.14
2024-04-10T19:37:23.732Z,75.97
2024-04-10T19:40:07.356Z,76.62
2024-04-10T19:42:51.360Z,76.23
2024-04-10T19:45:34.384Z,75.99
2024-04-10T19:48:18.674Z,75.85
2024-04-10T19:51:02.510Z,76.45
2024-04-10T19:53:46.718Z,75.43
2024-04-10T19:56:29.373Z,75.11
2024-04-10T19:59:13.378Z,75.28
2024-04-10T20:01:57.394Z,76.07
2024-04-10T20:04:41.452Z,75.83
2024-04-10T20:07:24.484Z,75.74
2024-04-10T20:10:08.383Z,75.47
2024-04-10T20:12:51.373Z,75.01
2024-04-10T20:15:35.352Z,74.41
2024-04-10T20:18:19.647Z,73.91
2024-04-10T20:21:02.430Z,73.35
2024-04-10T20:23:45.374Z,72.91
2024-04-10T20:26:29.451Z,72.46
2024-04-10T20:29:12.408Z,73.76
2024-04-10T20:31:56.551Z,73.03
2024-04-10T20:34:39.365Z,71.66
2024-04-10T20:37:23.385Z,71.65
2024-04-10T20:40:07.393Z,71.84
2024-04-10T20:42:51.357Z,70.92
2024-04-10T20:45:34.359Z,70.69
2024-04-10T20:48:18.492Z,70.89
2024-04-10T20:51:02.581Z,70.95
2024-04-10T20:53:46.444Z,71.21
2024-04-10T20:56:30.408Z,71.60
2024-04-10T20:59:14.386Z,71.47
2024-04-10T21:01:58.544Z,71.66
2024-04-10T21:04:42.444Z,70.78
2024-04-10T21:07:42.504Z,71.61
2024-04-10T21:10:42.567Z,70.37
2024-04-10T21:13:42.386Z,70.70
2024-04-10T21:16:43.404Z,71.20
2024-04-10T21:19:43.395Z,70.43
2024-04-10T21:22:43.776Z,70.12
2024-04-10T21:25:43.408Z,69.67
2024-04-10T21:28:43.772Z,70.03
2024-04-10T21:31:43.385Z,70.69
2024-04-10T21:34:45.390Z,70.78
2024-04-10T21:37:46.392Z,70.66
2024-04-10T21:40:45.445Z,71.56
2024-04-10T21:43:45.529Z,71.91
2024-04-10T21:46:45.398Z,72.12
2024-04-10T21:49:46.571Z,72.28
2024-04-10T21:52:46.414Z,71.52
2024-04-10T21:55:46.372Z,71.28
2024-04-10T21:58:51.483Z,71.27
2024-04-10T22:02:01.094Z,71.40
2024-04-10T22:05:06.592Z,71.66
2024-04-10T22:08:07.459Z,71.46
2024-04-10T22:10:51.391Z,71.11
2024-04-10T22:13:37.428Z,70.72
2024-04-10T22:16:21.567Z,70.95
2024-04-10T22:19:20.520Z,72.08
2024-04-10T22:22:20.389Z,71.06
2024-04-10T22:25:03.428Z,72.01
2024-04-10T22:27:48.346Z,72.37
2024-04-10T22:30:31.414Z,72.36
2024-04-10T22:33:18.659Z,72.00
2024-04-10T22:36:10.462Z,72.16
2024-04-10T22:38:55.467Z,71.76
2024-04-10T22:41:39.580Z,72.02
2024-04-10T22:44:24.480Z,72.49
2024-04-10T22:47:07.866Z,72.17
2024-04-10T22:49:52.471Z,72.22
2024-04-10T22:52:35.488Z,72.51
2024-04-10T22:55:19.413Z,71.58
2024-04-10T22:58:03.405Z,71.99
2024-04-10T23:00:47.470Z,71.95
2024-04-10T23:03:31.548Z,71.92
2024-04-10T23:06:15.513Z,71.32
2024-04-10T23:08:59.506Z,70.74
2024-04-10T23:11:43.765Z,71.18
2024-04-10T23:14:28.406Z,71.61
2024-04-10T23:17:11.424Z,71.91
2024-04-10T23:19:55.522Z,71.99
2024-04-10T23:22:40.431Z,72.45
2024-04-10T23:25:24.567Z,73.14
2024-04-10T23:28:08.426Z,72.83
2024-04-10T23:30:52.658Z,71.81
2024-04-10T23:33:36.606Z,71.05
2024-04-10T23:36:19.406Z,70.97
2024-04-10T23:39:03.505Z,70.95
2024-04-10T23:41:54.592Z,72.07
2024-04-10T23:44:37.460Z,71.31
2024-04-10T23:47:21.720Z,70.37
2024-04-10T23:50:05.774Z,71.51
2024-04-10T23:52:50.391Z,71.28
2024-04-10T23:55:33.436Z,71.89
2024-04-10T23:58:17.401Z,72.64
